sensor_id;sensor_type;location;lat;lon;timestamp;P1;durP1;ratioP1;P2;durP2;ratioP2
70049;SDS011;57391;51.306;22.680;2022-09-09T00:02:03;15.40;;;7.60;;
70049;SDS011;57391;51.306;22.680;2022-09-09T00:04:38;16.50;;;7.20;;
70049;SDS011;57391;51.306;22.680;2022-09-09T00:07:43;13.30;;;7.40;;
70049;SDS011;57391;51.306;22.680;2022-09-09T00:10:36;15.40;;;7.70;;
70049;SDS011;57391;51.306;22.680;2022-09-09T00:13:32;12.60;;;6.60;;
70049;SDS011;57391;51.306;22.680;2022-09-09T00:16:22;15.80;;;6.80;;
70049;SDS011;57391;51.306;22.680;2022-09-09T00:22:17;11.70;;;5.40;;
70049;SDS011;57391;51.306;22.680;2022-09-09T00:24:51;13.40;;;5.70;;
70049;SDS011;57391;51.306;22.680;2022-09-09T00:27:43;13.90;;;6.60;;
70049;SDS011;57391;51.306;22.680;2022-09-09T00:30:25;15.40;;;6.60;;
70049;SDS011;57391;51.306;22.680;2022-09-09T00:33:00;16.50;;;6.90;;
70049;SDS011;57391;51.306;22.680;2022-09-09T00:35:41;16.70;;;6.70;;
70049;SDS011;57391;51.306;22.680;2022-09-09T00:38:36;15.50;;;6.90;;
70049;SDS011;57391;51.306;22.680;2022-09-09T00:41:21;15.80;;;6.50;;
70049;SDS011;57391;51.306;22.680;2022-09-09T00:44:24;13.10;;;6.70;;
70049;SDS011;57391;51.306;22.680;2022-09-09T00:50:29;14.00;;;6.40;;
70049;SDS011;57391;51.306;22.680;2022-09-09T00:56:14;16.60;;;6.90;;
70049;SDS011;57391;51.306;22.680;2022-09-09T00:59:03;12.40;;;6.20;;
70049;SDS011;57391;51.306;22.680;2022-09-09T01:01:39;17.40;;;7.40;;
70049;SDS011;57391;51.306;22.680;2022-09-09T01:04:13;15.00;;;6.50;;
70049;SDS011;57391;51.306;22.680;2022-09-09T01:06:53;15.00;;;7.60;;
70049;SDS011;57391;51.306;22.680;2022-09-09T01:09:32;17.00;;;7.60;;
70049;SDS011;57391;51.306;22.680;2022-09-09T01:12:24;14.80;;;7.30;;
70049;SDS011;57391;51.306;22.680;2022-09-09T01:15:21;14.90;;;6.30;;
70049;SDS011;57391;51.306;22.680;2022-09-09T01:18:05;14.30;;;7.30;;
70049;SDS011;57391;51.306;22.680;2022-09-09T01:23:40;12.20;;;6.10;;
70049;SDS011;57391;51.306;22.680;2022-09-09T01:26:32;15.30;;;7.50;;
70049;SDS011;57391;51.306;22.680;2022-09-09T01:29:14;14.30;;;7.10;;
70049;SDS011;57391;51.306;22.680;2022-09-09T01:31:55;17.80;;;7.80;;
70049;SDS011;57391;51.306;22.680;2022-09-09T01:34:36;13.90;;;7.60;;
70049;SDS011;57391;51.306;22.680;2022-09-09T01:37:08;15.30;;;8.20;;
70049;SDS011;57391;51.306;22.680;2022-09-09T01:39:41;14.20;;;7.30;;
70049;SDS011;57391;51.306;22.680;2022-09-09T01:42:15;13.20;;;5.50;;
70049;SDS011;57391;51.306;22.680;2022-09-09T01:44:43;14.10;;;6.90;;
70049;SDS011;57391;51.306;22.680;2022-09-09T01:47:10;14.20;;;6.40;;
70049;SDS011;57391;51.306;22.680;2022-09-09T01:49:57;11.50;;;5.90;;
70049;SDS011;57391;51.306;22.680;2022-09-09T01:52:27;13.60;;;6.50;;
70049;SDS011;57391;51.306;22.680;2022-09-09T01:54:55;10.40;;;4.80;;
70049;SDS011;57391;51.306;22.680;2022-09-09T01:57:54;12.40;;;5.60;;
70049;SDS011;57391;51.306;22.680;2022-09-09T02:00:30;12.60;;;6.00;;
70049;SDS011;57391;51.306;22.680;2022-09-09T02:08:49;13.30;;;6.40;;
70049;SDS011;57391;51.306;22.680;2022-09-09T02:11:22;15.00;;;5.90;;
70049;SDS011;57391;51.306;22.680;2022-09-09T02:14:16;13.20;;;7.10;;
70049;SDS011;57391;51.306;22.680;2022-09-09T02:16:58;14.40;;;6.40;;
70049;SDS011;57391;51.306;22.680;2022-09-09T02:19:51;13.40;;;6.20;;
70049;SDS011;57391;51.306;22.680;2022-09-09T02:22:32;11.40;;;5.40;;
70049;SDS011;57391;51.306;22.680;2022-09-09T02:25:02;13.40;;;7.00;;
70049;SDS011;57391;51.306;22.680;2022-09-09T02:27:32;14.70;;;6.70;;
70049;SDS011;57391;51.306;22.680;2022-09-09T02:30:00;13.60;;;6.20;;
70049;SDS011;57391;51.306;22.680;2022-09-09T02:32:54;13.70;;;7.20;;
70049;SDS011;57391;51.306;22.680;2022-09-09T02:35:29;15.00;;;6.50;;
70049;SDS011;57391;51.306;22.680;2022-09-09T02:38:01;13.30;;;6.90;;
70049;SDS011;57391;51.306;22.680;2022-09-09T02:40:32;14.30;;;7.10;;
70049;SDS011;57391;51.306;22.680;2022-09-09T02:43:01;13.60;;;7.20;;
70049;SDS011;57391;51.306;22.680;2022-09-09T02:46:02;15.10;;;6.20;;
70049;SDS011;57391;51.306;22.680;2022-09-09T02:48:45;13.10;;;6.30;;
70049;SDS011;57391;51.306;22.680;2022-09-09T02:54:12;12.40;;;6.60;;
70049;SDS011;57391;51.306;22.680;2022-09-09T02:59:46;13.20;;;6.20;;
70049;SDS011;57391;51.306;22.680;2022-09-09T03:02:15;13.80;;;6.60;;
70049;SDS011;57391;51.306;22.680;2022-09-09T03:04:42;16.00;;;7.20;;
70049;SDS011;57391;51.306;22.680;2022-09-09T03:07:11;13.30;;;6.80;;
70049;SDS011;57391;51.306;22.680;2022-09-09T03:09:39;12.70;;;6.50;;
70049;SDS011;57391;51.306;22.680;2022-09-09T03:12:06;13.00;;;6.80;;
70049;SDS011;57391;51.306;22.680;2022-09-09T03:14:33;14.00;;;6.60;;
70049;SDS011;57391;51.306;22.680;2022-09-09T03:17:00;13.40;;;5.80;;
70049;SDS011;57391;51.306;22.680;2022-09-09T03:19:30;13.40;;;6.20;;
70049;SDS011;57391;51.306;22.680;2022-09-09T03:21:58;13.40;;;5.90;;
70049;SDS011;57391;51.306;22.680;2022-09-09T03:24:25;15.10;;;7.30;;
70049;SDS011;57391;51.306;22.680;2022-09-09T03:26:52;13.90;;;6.50;;
70049;SDS011;57391;51.306;22.680;2022-09-09T03:29:19;12.40;;;5.80;;
70049;SDS011;57391;51.306;22.680;2022-09-09T03:31:47;12.60;;;6.20;;
70049;SDS011;57391;51.306;22.680;2022-09-09T03:34:14;13.90;;;5.70;;
70049;SDS011;57391;51.306;22.680;2022-09-09T03:36:41;15.60;;;7.30;;
70049;SDS011;57391;51.306;22.680;2022-09-09T03:39:08;13.20;;;6.20;;
70049;SDS011;57391;51.306;22.680;2022-09-09T03:41:35;14.70;;;6.40;;
70049;SDS011;57391;51.306;22.680;2022-09-09T03:44:04;13.10;;;6.80;;
70049;SDS011;57391;51.306;22.680;2022-09-09T03:46:34;14.90;;;7.30;;
70049;SDS011;57391;51.306;22.680;2022-09-09T03:49:01;12.80;;;6.60;;
70049;SDS011;57391;51.306;22.680;2022-09-09T03:51:30;14.50;;;6.70;;
70049;SDS011;57391;51.306;22.680;2022-09-09T03:53:57;13.00;;;7.40;;
70049;SDS011;57391;51.306;22.680;2022-09-09T03:56:25;13.40;;;6.70;;
70049;SDS011;57391;51.306;22.680;2022-09-09T03:58:52;11.80;;;6.50;;
70049;SDS011;57391;51.306;22.680;2022-09-09T04:01:19;13.70;;;6.50;;
70049;SDS011;57391;51.306;22.680;2022-09-09T04:03:46;11.90;;;6.10;;
70049;SDS011;57391;51.306;22.680;2022-09-09T04:06:14;11.60;;;6.70;;
70049;SDS011;57391;51.306;22.680;2022-09-09T04:08:43;17.20;;;8.00;;
70049;SDS011;57391;51.306;22.680;2022-09-09T04:11:11;15.30;;;7.10;;
70049;SDS011;57391;51.306;22.680;2022-09-09T04:13:38;12.80;;;7.50;;
70049;SDS011;57391;51.306;22.680;2022-09-09T04:16:06;14.50;;;7.80;;
70049;SDS011;57391;51.306;22.680;2022-09-09T04:18:35;11.40;;;6.00;;
70049;SDS011;57391;51.306;22.680;2022-09-09T04:21:02;14.10;;;7.60;;
70049;SDS011;57391;51.306;22.680;2022-09-09T04:23:31;12.90;;;7.00;;
70049;SDS011;57391;51.306;22.680;2022-09-09T04:26:01;12.60;;;6.30;;
70049;SDS011;57391;51.306;22.680;2022-09-09T04:28:32;13.50;;;6.30;;
70049;SDS011;57391;51.306;22.680;2022-09-09T04:31:08;11.60;;;7.10;;
70049;SDS011;57391;51.306;22.680;2022-09-09T04:33:38;13.50;;;6.70;;
70049;SDS011;57391;51.306;22.680;2022-09-09T04:36:06;13.20;;;6.50;;
70049;SDS011;57391;51.306;22.680;2022-09-09T04:38:34;13.30;;;7.10;;
70049;SDS011;57391;51.306;22.680;2022-09-09T04:41:03;13.00;;;6.80;;
70049;SDS011;57391;51.306;22.680;2022-09-09T04:43:32;13.60;;;7.40;;
70049;SDS011;57391;51.306;22.680;2022-09-09T04:46:02;11.80;;;6.30;;
70049;SDS011;57391;51.306;22.680;2022-09-09T04:48:30;11.60;;;6.50;;
70049;SDS011;57391;51.306;22.680;2022-09-09T04:53:28;12.00;;;5.70;;
70049;SDS011;57391;51.306;22.680;2022-09-09T04:56:13;12.70;;;6.90;;
70049;SDS011;57391;51.306;22.680;2022-09-09T04:58:45;12.50;;;6.60;;
70049;SDS011;57391;51.306;22.680;2022-09-09T05:01:15;13.50;;;7.30;;
70049;SDS011;57391;51.306;22.680;2022-09-09T05:03:45;12.80;;;6.00;;
70049;SDS011;57391;51.306;22.680;2022-09-09T05:06:17;10.60;;;6.40;;
70049;SDS011;57391;51.306;22.680;2022-09-09T05:08:46;13.50;;;7.10;;
70049;SDS011;57391;51.306;22.680;2022-09-09T05:11:26;12.70;;;6.90;;
70049;SDS011;57391;51.306;22.680;2022-09-09T05:14:02;12.60;;;6.90;;
70049;SDS011;57391;51.306;22.680;2022-09-09T05:16:30;13.60;;;7.90;;
70049;SDS011;57391;51.306;22.680;2022-09-09T05:18:58;14.20;;;7.30;;
70049;SDS011;57391;51.306;22.680;2022-09-09T05:21:28;12.90;;;6.80;;
70049;SDS011;57391;51.306;22.680;2022-09-09T05:23:59;14.40;;;7.50;;
70049;SDS011;57391;51.306;22.680;2022-09-09T05:26:27;15.60;;;7.70;;
70049;SDS011;57391;51.306;22.680;2022-09-09T05:28:56;11.80;;;6.70;;
70049;SDS011;57391;51.306;22.680;2022-09-09T05:31:25;14.10;;;7.50;;
70049;SDS011;57391;51.306;22.680;2022-09-09T05:33:55;13.50;;;7.60;;
70049;SDS011;57391;51.306;22.680;2022-09-09T05:36:22;13.30;;;7.50;;
70049;SDS011;57391;51.306;22.680;2022-09-09T05:38:53;15.20;;;7.70;;
70049;SDS011;57391;51.306;22.680;2022-09-09T05:41:23;13.80;;;7.80;;
70049;SDS011;57391;51.306;22.680;2022-09-09T05:43:51;12.50;;;7.10;;
70049;SDS011;57391;51.306;22.680;2022-09-09T05:46:20;11.40;;;6.30;;
70049;SDS011;57391;51.306;22.680;2022-09-09T05:48:50;13.40;;;7.80;;
70049;SDS011;57391;51.306;22.680;2022-09-09T05:51:28;15.30;;;7.30;;
70049;SDS011;57391;51.306;22.680;2022-09-09T05:54:01;14.00;;;7.50;;
70049;SDS011;57391;51.306;22.680;2022-09-09T05:56:31;11.70;;;6.90;;
70049;SDS011;57391;51.306;22.680;2022-09-09T05:58:59;12.40;;;6.40;;
70049;SDS011;57391;51.306;22.680;2022-09-09T06:01:34;14.10;;;7.50;;
70049;SDS011;57391;51.306;22.680;2022-09-09T06:04:02;13.10;;;7.10;;
70049;SDS011;57391;51.306;22.680;2022-09-09T06:06:33;10.30;;;5.90;;
70049;SDS011;57391;51.306;22.680;2022-09-09T06:09:05;11.00;;;5.40;;
70049;SDS011;57391;51.306;22.680;2022-09-09T06:11:38;11.40;;;6.50;;
70049;SDS011;57391;51.306;22.680;2022-09-09T06:14:06;14.30;;;7.20;;
70049;SDS011;57391;51.306;22.680;2022-09-09T06:16:35;13.10;;;6.90;;
70049;SDS011;57391;51.306;22.680;2022-09-09T06:19:05;13.00;;;7.00;;
70049;SDS011;57391;51.306;22.680;2022-09-09T06:21:35;13.80;;;6.70;;
70049;SDS011;57391;51.306;22.680;2022-09-09T06:24:04;12.00;;;6.50;;
70049;SDS011;57391;51.306;22.680;2022-09-09T06:26:35;11.40;;;6.60;;
70049;SDS011;57391;51.306;22.680;2022-09-09T06:29:11;12.30;;;6.60;;
70049;SDS011;57391;51.306;22.680;2022-09-09T06:31:39;12.80;;;6.60;;
70049;SDS011;57391;51.306;22.680;2022-09-09T06:34:15;10.40;;;6.10;;
70049;SDS011;57391;51.306;22.680;2022-09-09T06:36:45;10.90;;;5.70;;
70049;SDS011;57391;51.306;22.680;2022-09-09T06:39:12;15.10;;;6.60;;
70049;SDS011;57391;51.306;22.680;2022-09-09T06:41:42;13.00;;;6.10;;
70049;SDS011;57391;51.306;22.680;2022-09-09T06:44:19;10.60;;;6.00;;
70049;SDS011;57391;51.306;22.680;2022-09-09T06:46:46;11.10;;;6.20;;
70049;SDS011;57391;51.306;22.680;2022-09-09T06:49:16;13.20;;;6.80;;
70049;SDS011;57391;51.306;22.680;2022-09-09T06:51:44;10.50;;;5.20;;
70049;SDS011;57391;51.306;22.680;2022-09-09T06:54:13;12.40;;;6.90;;
70049;SDS011;57391;51.306;22.680;2022-09-09T06:56:43;13.60;;;7.20;;
70049;SDS011;57391;51.306;22.680;2022-09-09T06:59:16;15.40;;;7.00;;
70049;SDS011;57391;51.306;22.680;2022-09-09T07:01:44;12.30;;;6.60;;
70049;SDS011;57391;51.306;22.680;2022-09-09T07:04:13;13.00;;;6.30;;
70049;SDS011;57391;51.306;22.680;2022-09-09T07:06:44;11.80;;;6.40;;
70049;SDS011;57391;51.306;22.680;2022-09-09T07:09:19;11.80;;;6.30;;
70049;SDS011;57391;51.306;22.680;2022-09-09T07:11:50;12.20;;;7.00;;
70049;SDS011;57391;51.306;22.680;2022-09-09T07:14:22;13.40;;;6.90;;
70049;SDS011;57391;51.306;22.680;2022-09-09T07:16:55;11.10;;;5.90;;
70049;SDS011;57391;51.306;22.680;2022-09-09T07:19:22;12.20;;;6.60;;
70049;SDS011;57391;51.306;22.680;2022-09-09T07:21:51;10.30;;;5.70;;
70049;SDS011;57391;51.306;22.680;2022-09-09T07:24:19;12.50;;;6.80;;
70049;SDS011;57391;51.306;22.680;2022-09-09T07:26:46;13.50;;;7.20;;
70049;SDS011;57391;51.306;22.680;2022-09-09T07:29:13;10.60;;;6.50;;
70049;SDS011;57391;51.306;22.680;2022-09-09T07:31:42;11.60;;;7.40;;
70049;SDS011;57391;51.306;22.680;2022-09-09T07:34:12;11.40;;;6.90;;
70049;SDS011;57391;51.306;22.680;2022-09-09T07:36:40;13.90;;;7.00;;
70049;SDS011;57391;51.306;22.680;2022-09-09T07:39:12;11.90;;;6.90;;
70049;SDS011;57391;51.306;22.680;2022-09-09T07:41:44;13.40;;;7.30;;
70049;SDS011;57391;51.306;22.680;2022-09-09T07:44:15;11.00;;;6.90;;
70049;SDS011;57391;51.306;22.680;2022-09-09T07:46:46;13.60;;;7.70;;
70049;SDS011;57391;51.306;22.680;2022-09-09T07:49:16;12.20;;;7.50;;
70049;SDS011;57391;51.306;22.680;2022-09-09T07:51:46;11.80;;;7.30;;
70049;SDS011;57391;51.306;22.680;2022-09-09T07:54:16;10.80;;;6.80;;
70049;SDS011;57391;51.306;22.680;2022-09-09T07:56:52;12.30;;;7.50;;
70049;SDS011;57391;51.306;22.680;2022-09-09T07:59:20;13.20;;;7.30;;
70049;SDS011;57391;51.306;22.680;2022-09-09T08:01:50;14.20;;;7.50;;
70049;SDS011;57391;51.306;22.680;2022-09-09T08:04:22;12.90;;;7.50;;
70049;SDS011;57391;51.306;22.680;2022-09-09T08:06:55;16.40;;;7.90;;
70049;SDS011;57391;51.306;22.680;2022-09-09T08:09:25;16.00;;;8.00;;
70049;SDS011;57391;51.306;22.680;2022-09-09T08:11:58;15.00;;;7.90;;
70049;SDS011;57391;51.306;22.680;2022-09-09T08:14:25;14.60;;;7.70;;
70049;SDS011;57391;51.306;22.680;2022-09-09T08:16:53;13.10;;;8.60;;
70049;SDS011;57391;51.306;22.680;2022-09-09T08:19:22;11.20;;;7.00;;
70049;SDS011;57391;51.306;22.680;2022-09-09T08:21:50;14.40;;;7.80;;
70049;SDS011;57391;51.306;22.680;2022-09-09T08:24:17;14.10;;;7.80;;
70049;SDS011;57391;51.306;22.680;2022-09-09T08:26:48;16.10;;;8.40;;
70049;SDS011;57391;51.306;22.680;2022-09-09T08:29:17;14.10;;;7.90;;
70049;SDS011;57391;51.306;22.680;2022-09-09T08:31:49;11.90;;;6.00;;
70049;SDS011;57391;51.306;22.680;2022-09-09T08:34:20;14.80;;;7.90;;
70049;SDS011;57391;51.306;22.680;2022-09-09T08:36:50;12.00;;;7.30;;
70049;SDS011;57391;51.306;22.680;2022-09-09T08:39:21;15.50;;;8.60;;
70049;SDS011;57391;51.306;22.680;2022-09-09T08:48:32;13.30;;;7.10;;
70049;SDS011;57391;51.306;22.680;2022-09-09T08:51:03;15.10;;;8.40;;
70049;SDS011;57391;51.306;22.680;2022-09-09T08:53:42;13.00;;;8.00;;
70049;SDS011;57391;51.306;22.680;2022-09-09T08:56:17;13.40;;;8.80;;
70049;SDS011;57391;51.306;22.680;2022-09-09T08:58:53;15.60;;;8.60;;
70049;SDS011;57391;51.306;22.680;2022-09-09T09:04:54;12.50;;;7.40;;
70049;SDS011;57391;51.306;22.680;2022-09-09T09:10:31;12.10;;;7.00;;
70049;SDS011;57391;51.306;22.680;2022-09-09T09:13:00;14.90;;;8.70;;
70049;SDS011;57391;51.306;22.680;2022-09-09T09:15:33;11.50;;;7.10;;
70049;SDS011;57391;51.306;22.680;2022-09-09T09:18:05;14.60;;;8.30;;
70049;SDS011;57391;51.306;22.680;2022-09-09T09:20:54;12.70;;;7.40;;
70049;SDS011;57391;51.306;22.680;2022-09-09T09:23:43;12.30;;;7.80;;
70049;SDS011;57391;51.306;22.680;2022-09-09T09:26:15;14.10;;;8.90;;
70049;SDS011;57391;51.306;22.680;2022-09-09T09:28:42;11.60;;;7.40;;
70049;SDS011;57391;51.306;22.680;2022-09-09T09:31:13;13.70;;;8.50;;
70049;SDS011;57391;51.306;22.680;2022-09-09T09:33:49;11.50;;;7.30;;
70049;SDS011;57391;51.306;22.680;2022-09-09T09:36:34;13.20;;;7.70;;
70049;SDS011;57391;51.306;22.680;2022-09-09T09:39:05;13.50;;;7.60;;
70049;SDS011;57391;51.306;22.680;2022-09-09T09:41:41;11.90;;;7.30;;
70049;SDS011;57391;51.306;22.680;2022-09-09T09:44:40;12.20;;;8.50;;
70049;SDS011;57391;51.306;22.680;2022-09-09T09:47:21;14.50;;;8.60;;
70049;SDS011;57391;51.306;22.680;2022-09-09T09:50:17;10.80;;;7.20;;
70049;SDS011;57391;51.306;22.680;2022-09-09T09:52:54;13.10;;;8.30;;
70049;SDS011;57391;51.306;22.680;2022-09-09T09:55:24;13.30;;;6.80;;
70049;SDS011;57391;51.306;22.680;2022-09-09T09:57:53;12.80;;;8.30;;
70049;SDS011;57391;51.306;22.680;2022-09-09T10:00:22;15.20;;;8.90;;
70049;SDS011;57391;51.306;22.680;2022-09-09T10:03:00;10.90;;;7.50;;
70049;SDS011;57391;51.306;22.680;2022-09-09T10:05:30;12.20;;;8.00;;
70049;SDS011;57391;51.306;22.680;2022-09-09T10:08:14;14.10;;;7.20;;
70049;SDS011;57391;51.306;22.680;2022-09-09T10:11:05;13.00;;;8.00;;
70049;SDS011;57391;51.306;22.680;2022-09-09T10:14:05;15.10;;;8.60;;
70049;SDS011;57391;51.306;22.680;2022-09-09T10:20:12;13.70;;;8.60;;
70049;SDS011;57391;51.306;22.680;2022-09-09T10:22:47;12.00;;;7.10;;
70049;SDS011;57391;51.306;22.680;2022-09-09T10:52:32;10.80;;;7.00;;
70049;SDS011;57391;51.306;22.680;2022-09-09T10:55:14;11.00;;;6.60;;
70049;SDS011;57391;51.306;22.680;2022-09-09T11:00:25;10.90;;;7.00;;
70049;SDS011;57391;51.306;22.680;2022-09-09T11:03:03;10.30;;;6.80;;
70049;SDS011;57391;51.306;22.680;2022-09-09T11:05:43;10.70;;;7.10;;
70049;SDS011;57391;51.306;22.680;2022-09-09T11:08:21;9.80;;;6.90;;
70049;SDS011;57391;51.306;22.680;2022-09-09T11:11:03;12.50;;;7.20;;
70049;SDS011;57391;51.306;22.680;2022-09-09T11:14:26;9.30;;;5.80;;
70049;SDS011;57391;51.306;22.680;2022-09-09T11:17:04;11.20;;;7.30;;
70049;SDS011;57391;51.306;22.680;2022-09-09T11:19:42;10.20;;;6.80;;
70049;SDS011;57391;51.306;22.680;2022-09-09T11:22:47;11.60;;;7.10;;
70049;SDS011;57391;51.306;22.680;2022-09-09T11:25:32;10.60;;;7.10;;
70049;SDS011;57391;51.306;22.680;2022-09-09T11:31:44;11.00;;;7.20;;
70049;SDS011;57391;51.306;22.680;2022-09-09T11:37:23;9.90;;;6.60;;
70049;SDS011;57391;51.306;22.680;2022-09-09T11:40:14;12.60;;;8.00;;
70049;SDS011;57391;51.306;22.680;2022-09-09T11:42:47;10.80;;;7.60;;
70049;SDS011;57391;51.306;22.680;2022-09-09T11:45:21;11.80;;;7.40;;
70049;SDS011;57391;51.306;22.680;2022-09-09T11:47:54;12.30;;;8.20;;
70049;SDS011;57391;51.306;22.680;2022-09-09T11:53:05;11.70;;;7.50;;
70049;SDS011;57391;51.306;22.680;2022-09-09T11:55:48;14.10;;;7.80;;
70049;SDS011;57391;51.306;22.680;2022-09-09T11:58:28;12.10;;;7.20;;
70049;SDS011;57391;51.306;22.680;2022-09-09T12:00:59;13.80;;;7.50;;
70049;SDS011;57391;51.306;22.680;2022-09-09T12:03:46;12.30;;;6.90;;
70049;SDS011;57391;51.306;22.680;2022-09-09T12:06:30;13.00;;;7.60;;
70049;SDS011;57391;51.306;22.680;2022-09-09T12:11:51;13.00;;;7.10;;
70049;SDS011;57391;51.306;22.680;2022-09-09T12:14:36;10.70;;;7.10;;
70049;SDS011;57391;51.306;22.680;2022-09-09T12:17:26;11.80;;;7.10;;
70049;SDS011;57391;51.306;22.680;2022-09-09T12:20:18;11.30;;;6.40;;
70049;SDS011;57391;51.306;22.680;2022-09-09T12:28:52;11.90;;;7.60;;
70049;SDS011;57391;51.306;22.680;2022-09-09T12:37:35;9.70;;;6.80;;
70049;SDS011;57391;51.306;22.680;2022-09-09T12:40:06;10.40;;;6.60;;
70049;SDS011;57391;51.306;22.680;2022-09-09T12:42:48;10.50;;;7.10;;
70049;SDS011;57391;51.306;22.680;2022-09-09T12:45:24;12.10;;;7.20;;
70049;SDS011;57391;51.306;22.680;2022-09-09T12:50:36;10.30;;;6.90;;
70049;SDS011;57391;51.306;22.680;2022-09-09T12:53:10;12.00;;;8.40;;
70049;SDS011;57391;51.306;22.680;2022-09-09T12:55:50;11.20;;;7.60;;
70049;SDS011;57391;51.306;22.680;2022-09-09T12:58:19;12.30;;;8.60;;
70049;SDS011;57391;51.306;22.680;2022-09-09T13:00:52;13.00;;;8.30;;
70049;SDS011;57391;51.306;22.680;2022-09-09T13:03:23;11.30;;;7.80;;
70049;SDS011;57391;51.306;22.680;2022-09-09T13:05:52;11.90;;;7.70;;
70049;SDS011;57391;51.306;22.680;2022-09-09T13:08:20;11.30;;;7.30;;
70049;SDS011;57391;51.306;22.680;2022-09-09T13:10:53;11.90;;;8.00;;
70049;SDS011;57391;51.306;22.680;2022-09-09T13:13:40;11.50;;;7.30;;
70049;SDS011;57391;51.306;22.680;2022-09-09T13:16:41;12.30;;;8.60;;
70049;SDS011;57391;51.306;22.680;2022-09-09T13:19:13;12.90;;;8.40;;
70049;SDS011;57391;51.306;22.680;2022-09-09T13:21:42;14.20;;;9.30;;
70049;SDS011;57391;51.306;22.680;2022-09-09T13:26:56;12.50;;;8.40;;
70049;SDS011;57391;51.306;22.680;2022-09-09T13:29:25;12.70;;;9.50;;
70049;SDS011;57391;51.306;22.680;2022-09-09T13:31:53;11.50;;;8.00;;
70049;SDS011;57391;51.306;22.680;2022-09-09T13:34:33;15.80;;;8.80;;
70049;SDS011;57391;51.306;22.680;2022-09-09T13:37:06;12.50;;;8.30;;
70049;SDS011;57391;51.306;22.680;2022-09-09T13:39:53;14.10;;;9.20;;
70049;SDS011;57391;51.306;22.680;2022-09-09T13:42:26;11.10;;;8.30;;
70049;SDS011;57391;51.306;22.680;2022-09-09T13:44:57;14.50;;;8.10;;
70049;SDS011;57391;51.306;22.680;2022-09-09T13:47:30;12.50;;;8.40;;
70049;SDS011;57391;51.306;22.680;2022-09-09T13:52:56;14.20;;;9.20;;
70049;SDS011;57391;51.306;22.680;2022-09-09T13:55:28;15.30;;;9.30;;
70049;SDS011;57391;51.306;22.680;2022-09-09T13:58:02;14.20;;;9.20;;
70049;SDS011;57391;51.306;22.680;2022-09-09T14:00:33;14.60;;;9.50;;
70049;SDS011;57391;51.306;22.680;2022-09-09T14:03:01;17.30;;;9.80;;
70049;SDS011;57391;51.306;22.680;2022-09-09T14:05:31;13.70;;;9.40;;
70049;SDS011;57391;51.306;22.680;2022-09-09T14:07:59;15.20;;;10.20;;
70049;SDS011;57391;51.306;22.680;2022-09-09T14:10:27;16.40;;;9.40;;
70049;SDS011;57391;51.306;22.680;2022-09-09T14:12:54;14.40;;;9.40;;
70049;SDS011;57391;51.306;22.680;2022-09-09T14:15:21;10.60;;;8.20;;
70049;SDS011;57391;51.306;22.680;2022-09-09T14:17:48;15.40;;;10.30;;
70049;SDS011;57391;51.306;22.680;2022-09-09T14:20:16;15.50;;;10.20;;
70049;SDS011;57391;51.306;22.680;2022-09-09T14:22:44;14.30;;;8.90;;
70049;SDS011;57391;51.306;22.680;2022-09-09T14:25:11;15.50;;;9.90;;
70049;SDS011;57391;51.306;22.680;2022-09-09T14:27:41;15.80;;;10.10;;
70049;SDS011;57391;51.306;22.680;2022-09-09T14:30:09;16.20;;;10.90;;
70049;SDS011;57391;51.306;22.680;2022-09-09T14:32:37;16.70;;;10.10;;
70049;SDS011;57391;51.306;22.680;2022-09-09T14:35:04;15.00;;;10.60;;
70049;SDS011;57391;51.306;22.680;2022-09-09T14:37:31;16.20;;;9.90;;
70049;SDS011;57391;51.306;22.680;2022-09-09T14:39:58;15.40;;;10.30;;
70049;SDS011;57391;51.306;22.680;2022-09-09T14:42:25;16.50;;;10.90;;
70049;SDS011;57391;51.306;22.680;2022-09-09T14:44:53;13.30;;;9.60;;
70049;SDS011;57391;51.306;22.680;2022-09-09T14:47:20;18.30;;;11.30;;
70049;SDS011;57391;51.306;22.680;2022-09-09T14:49:48;17.90;;;11.50;;
70049;SDS011;57391;51.306;22.680;2022-09-09T14:52:16;17.90;;;11.90;;
70049;SDS011;57391;51.306;22.680;2022-09-09T14:54:44;16.70;;;11.00;;
70049;SDS011;57391;51.306;22.680;2022-09-09T14:57:11;16.10;;;10.80;;
70049;SDS011;57391;51.306;22.680;2022-09-09T14:59:39;17.50;;;11.00;;
70049;SDS011;57391;51.306;22.680;2022-09-09T15:02:08;19.50;;;11.70;;
70049;SDS011;57391;51.306;22.680;2022-09-09T15:04:36;19.30;;;11.90;;
70049;SDS011;57391;51.306;22.680;2022-09-09T15:07:03;21.00;;;12.50;;
70049;SDS011;57391;51.306;22.680;2022-09-09T15:09:32;20.00;;;12.70;;
70049;SDS011;57391;51.306;22.680;2022-09-09T15:11:59;21.10;;;12.20;;
70049;SDS011;57391;51.306;22.680;2022-09-09T15:14:27;17.60;;;11.10;;
70049;SDS011;57391;51.306;22.680;2022-09-09T15:16:54;20.00;;;12.20;;
70049;SDS011;57391;51.306;22.680;2022-09-09T15:19:21;20.80;;;12.50;;
70049;SDS011;57391;51.306;22.680;2022-09-09T15:21:48;21.60;;;13.80;;
70049;SDS011;57391;51.306;22.680;2022-09-09T15:24:15;22.40;;;14.40;;
70049;SDS011;57391;51.306;22.680;2022-09-09T15:26:42;21.70;;;14.20;;
70049;SDS011;57391;51.306;22.680;2022-09-09T15:29:10;25.80;;;16.50;;
70049;SDS011;57391;51.306;22.680;2022-09-09T15:31:37;27.60;;;16.80;;
70049;SDS011;57391;51.306;22.680;2022-09-09T15:34:06;25.40;;;16.40;;
70049;SDS011;57391;51.306;22.680;2022-09-09T15:36:42;24.20;;;14.00;;
70049;SDS011;57391;51.306;22.680;2022-09-09T15:39:12;23.60;;;16.20;;
70049;SDS011;57391;51.306;22.680;2022-09-09T15:41:44;23.50;;;13.80;;
70049;SDS011;57391;51.306;22.680;2022-09-09T15:44:12;20.30;;;13.80;;
70049;SDS011;57391;51.306;22.680;2022-09-09T15:46:45;25.10;;;14.10;;
70049;SDS011;57391;51.306;22.680;2022-09-09T15:49:20;21.30;;;13.60;;
70049;SDS011;57391;51.306;22.680;2022-09-09T15:51:55;23.40;;;14.40;;
70049;SDS011;57391;51.306;22.680;2022-09-09T15:54:25;23.50;;;14.30;;
70049;SDS011;57391;51.306;22.680;2022-09-09T15:56:55;24.40;;;14.30;;
70049;SDS011;57391;51.306;22.680;2022-09-09T15:59:25;26.70;;;16.90;;
70049;SDS011;57391;51.306;22.680;2022-09-09T16:01:55;24.60;;;13.40;;
70049;SDS011;57391;51.306;22.680;2022-09-09T16:04:25;23.70;;;15.00;;
70049;SDS011;57391;51.306;22.680;2022-09-09T16:06:58;27.10;;;15.20;;
70049;SDS011;57391;51.306;22.680;2022-09-09T16:09:27;26.10;;;15.00;;
70049;SDS011;57391;51.306;22.680;2022-09-09T16:11:57;26.70;;;14.80;;
70049;SDS011;57391;51.306;22.680;2022-09-09T16:14:25;26.50;;;14.90;;
70049;SDS011;57391;51.306;22.680;2022-09-09T16:16:54;28.20;;;17.00;;
70049;SDS011;57391;51.306;22.680;2022-09-09T16:19:21;28.50;;;17.40;;
70049;SDS011;57391;51.306;22.680;2022-09-09T16:21:49;28.10;;;16.20;;
70049;SDS011;57391;51.306;22.680;2022-09-09T16:24:18;26.50;;;16.60;;
70049;SDS011;57391;51.306;22.680;2022-09-09T16:26:51;22.90;;;15.60;;
70049;SDS011;57391;51.306;22.680;2022-09-09T16:29:21;25.60;;;15.30;;
70049;SDS011;57391;51.306;22.680;2022-09-09T16:31:50;25.30;;;16.00;;
70049;SDS011;57391;51.306;22.680;2022-09-09T16:34:18;27.00;;;16.70;;
70049;SDS011;57391;51.306;22.680;2022-09-09T16:36:48;22.90;;;15.00;;
70049;SDS011;57391;51.306;22.680;2022-09-09T16:39:20;23.60;;;15.40;;
70049;SDS011;57391;51.306;22.680;2022-09-09T16:41:48;27.30;;;17.00;;